Time;durP1;ratioP1;P1;durP2;ratioP2;P2;SDS_P1;SDS_P2;PMS_P1;PMS_P2;Temp;Humidity;BMP_temperature;BMP_pressure;BME280_temperature;BME280_humidity;BME280_pressure;Samples;Min_cycle;Max_cycle;Signal;HPM_P1;HPM_P2
2022/08/19 00:00:50;;;;;;;17.97;13.90;;;19.60;99.90;;;;;;5051225;28;20256;-52
2022/08/19 00:03:18;;;;;;;16.03;13.40;;;19.60;99.90;;;;;;5069135;28;20202;-50
2022/08/19 00:05:45;;;;;;;14.33;12.67;;;19.60;99.90;;;;;;5058956;28;20190;-51
2022/08/19 00:08:13;;;;;;;12.30;11.10;;;19.50;99.90;;;;;;5069468;28;20206;-49
2022/08/19 00:10:40;;;;;;;14.37;12.47;;;19.50;99.90;;;;;;5061377;28;20293;-51
2022/08/19 00:13:07;;;;;;;17.77;13.80;;;19.60;99.90;;;;;;5063063;28;20597;-48
2022/08/19 00:15:34;;;;;;;17.63;14.97;;;19.50;99.90;;;;;;5052329;28;20224;-50
2022/08/19 00:18:01;;;;;;;18.93;14.37;;;19.50;99.90;;;;;;5070866;28;20183;-50
2022/08/19 00:20:28;;;;;;;19.67;14.17;;;19.50;99.90;;;;;;5063273;28;20226;-49
2022/08/19 00:22:55;;;;;;;19.20;15.30;;;19.50;99.90;;;;;;5062538;28;20956;-49
2022/08/19 00:25:23;;;;;;;16.83;14.67;;;19.40;99.90;;;;;;5063249;28;20207;-50
2022/08/19 00:27:50;;;;;;;19.47;14.43;;;19.40;99.90;;;;;;5060035;28;20194;-46
2022/08/19 00:30:17;;;;;;;20.60;15.13;;;19.40;99.90;;;;;;5052644;28;20722;-48
2022/08/19 00:32:44;;;;;;;22.03;15.77;;;19.40;99.90;;;;;;5067243;28;20190;-50
2022/08/19 00:35:11;;;;;;;23.80;16.00;;;19.40;99.90;;;;;;5072027;28;20810;-47
2022/08/19 00:37:42;;;;;;;22.33;16.00;;;19.40;99.90;;;;;;5062710;28;20206;-50
2022/08/19 00:40:12;;;;;;;23.70;17.00;;;19.40;99.90;;;;;;5079572;28;20300;-51
2022/08/19 00:42:40;;;;;;;19.60;15.97;;;19.40;99.90;;;;;;5080269;28;20212;-49
2022/08/19 00:45:13;;;;;;;20.07;15.93;;;19.30;99.90;;;;;;5064378;28;20221;-48
2022/08/19 00:47:40;;;;;;;21.03;15.40;;;19.30;99.90;;;;;;5070072;28;20205;-49
2022/08/19 00:50:10;;;;;;;20.60;15.27;;;19.30;99.90;;;;;;5062530;28;20305;-48
2022/08/19 00:52:44;;;;;;;22.00;16.57;;;19.30;99.90;;;;;;5076315;28;20302;-50
2022/08/19 00:55:14;;;;;;;25.13;16.60;;;19.30;99.90;;;;;;5062969;28;20203;-47
2022/08/19 00:57:47;;;;;;;19.93;16.53;;;19.30;99.90;;;;;;5080029;28;20545;-50
2022/08/19 01:00:17;;;;;;;20.10;15.83;;;19.30;99.90;;;;;;5082856;28;20217;-47
2022/08/19 01:02:44;;;;;;;18.37;14.93;;;19.30;99.90;;;;;;5059489;28;20572;-52
2022/08/19 01:05:15;;;;;;;20.73;17.20;;;19.30;99.90;;;;;;5068732;28;20202;-48
2022/08/19 01:07:42;;;;;;;25.97;16.57;;;19.30;99.90;;;;;;5064518;28;20244;-51
2022/08/19 01:10:15;;;;;;;21.10;16.57;;;19.30;99.90;;;;;;5067690;28;20703;-48
2022/08/19 01:12:45;;;;;;;25.00;17.43;;;19.30;99.90;;;;;;5060237;28;20202;-52
2022/08/19 01:15:15;;;;;;;23.57;18.00;;;19.20;99.90;;;;;;5062573;28;20573;-48
2022/08/19 01:17:42;;;;;;;27.67;19.27;;;19.20;99.90;;;;;;5048786;28;20221;-50
2022/08/19 01:20:14;;;;;;;25.07;20.17;;;19.20;99.90;;;;;;5072309;28;20218;-50
2022/08/19 01:22:45;;;;;;;27.77;19.60;;;19.20;99.90;;;;;;5061380;28;20357;-52
2022/08/19 01:25:14;;;;;;;29.07;18.40;;;19.20;99.90;;;;;;5059492;28;20206;-52
2022/08/19 01:27:43;;;;;;;31.87;20.63;;;19.20;99.90;;;;;;5060244;28;20195;-49
2022/08/19 01:30:13;;;;;;;26.23;19.20;;;19.20;99.90;;;;;;5062883;28;20702;-51
2022/08/19 01:32:40;;;;;;;26.13;18.23;;;19.20;99.90;;;;;;5052271;28;20195;-52
2022/08/19 01:35:08;;;;;;;27.97;20.43;;;19.20;99.90;;;;;;5069083;28;20210;-48
2022/08/19 01:37:45;;;;;;;28.17;19.53;;;19.20;99.90;;;;;;5059370;28;20313;-49
2022/08/19 01:40:12;;;;;;;23.97;19.43;;;19.20;99.90;;;;;;5062283;28;20214;-49
2022/08/19 01:42:40;;;;;;;24.63;18.70;;;19.20;99.90;;;;;;5061026;28;20210;-49
2022/08/19 01:45:08;;;;;;;33.07;20.80;;;19.20;99.90;;;;;;5061378;28;20198;-49
2022/08/19 01:47:36;;;;;;;28.43;19.33;;;19.10;99.90;;;;;;5061384;28;20194;-52
2022/08/19 01:50:04;;;;;;;29.57;19.87;;;19.10;99.90;;;;;;5055358;28;20217;-50
2022/08/19 01:52:31;;;;;;;29.87;19.83;;;19.10;99.90;;;;;;5068674;28;20202;-52
2022/08/19 01:54:59;;;;;;;23.77;19.27;;;19.10;99.90;;;;;;5060863;28;20209;-47
2022/08/19 01:57:26;;;;;;;32.17;20.93;;;19.10;99.90;;;;;;5075287;28;20210;-51
2022/08/19 01:59:53;;;;;;;31.77;20.23;;;19.00;99.90;;;;;;5082158;28;20209;-47
2022/08/19 02:02:20;;;;;;;29.43;19.90;;;18.90;99.90;;;;;;5086082;28;20190;-48
2022/08/19 02:04:47;;;;;;;31.17;20.97;;;18.90;99.90;;;;;;5062124;28;20202;-47
2022/08/19 02:07:14;;;;;;;30.73;19.27;;;18.90;99.90;;;;;;5068804;28;20198;-48
2022/08/19 02:09:41;;;;;;;31.10;19.50;;;18.90;99.90;;;;;;5063627;28;20214;-46
2022/08/19 02:12:10;;;;;;;31.57;20.10;;;18.90;99.90;;;;;;5064623;28;20221;-48
2022/08/19 02:14:37;;;;;;;31.03;20.20;;;18.90;99.90;;;;;;5063024;28;20198;-49
2022/08/19 02:17:05;;;;;;;31.23;19.43;;;18.80;99.90;;;;;;5065130;28;20354;-49
2022/08/19 02:19:33;;;;;;;37.27;19.87;;;18.80;99.90;;;;;;5061159;28;20281;-50
2022/08/19 02:22:00;;;;;;;31.93;20.60;;;18.80;99.90;;;;;;5062803;28;20186;-46
2022/08/19 02:24:27;;;;;;;36.73;20.07;;;18.80;99.90;;;;;;5066790;28;20199;-50
2022/08/19 02:26:55;;;;;;;40.33;22.00;;;18.80;99.90;;;;;;5082444;28;20182;-47
2022/08/19 02:29:23;;;;;;;31.97;19.97;;;18.80;99.90;;;;;;5072263;28;20202;-48
2022/08/19 02:31:51;;;;;;;35.17;21.27;;;18.70;99.90;;;;;;5062302;28;20195;-48
2022/08/19 02:34:18;;;;;;;42.87;22.43;;;18.70;99.90;;;;;;5078231;28;20200;-48
2022/08/19 02:36:45;;;;;;;38.23;22.97;;;18.70;99.90;;;;;;5057963;28;20670;-51
2022/08/19 02:39:11;;;;;;;41.33;23.53;;;18.70;99.90;;;;;;5066997;28;20210;-53
2022/08/19 02:41:38;;;;;;;41.40;22.83;;;18.70;99.90;;;;;;5063500;28;20214;-52
2022/08/19 02:44:06;;;;;;;35.37;22.60;;;18.70;99.90;;;;;;5062085;28;20214;-47
2022/08/19 02:46:34;;;;;;;41.80;22.87;;;18.60;99.90;;;;;;5064410;28;20190;-48
2022/08/19 02:49:05;;;;;;;35.17;22.00;;;18.60;99.90;;;;;;5063902;28;20273;-47
2022/08/19 02:51:34;;;;;;;31.93;20.93;;;18.60;99.90;;;;;;5057793;28;20227;-51
2022/08/19 02:54:01;;;;;;;38.80;20.53;;;18.60;99.90;;;;;;5065289;28;20205;-48
2022/08/19 02:56:28;;;;;;;38.60;21.60;;;18.60;99.90;;;;;;5071383;28;20237;-47
2022/08/19 02:58:56;;;;;;;35.60;21.00;;;18.60;99.90;;;;;;5062592;28;20926;-49
2022/08/19 03:01:27;;;;;;;29.60;19.30;;;18.60;99.90;;;;;;5066461;28;20317;-48
2022/08/19 03:03:57;;;;;;;32.00;18.47;;;18.60;99.90;;;;;;5063910;28;20420;-47
2022/08/19 03:06:24;;;;;;;26.07;18.43;;;18.60;99.90;;;;;;5069717;28;20222;-48
2022/08/19 03:08:51;;;;;;;30.20;17.50;;;18.60;99.90;;;;;;5049687;28;20213;-46
2022/08/19 03:11:21;;;;;;;25.67;17.57;;;18.60;99.90;;;;;;5065078;28;20230;-49
2022/08/19 03:13:50;;;;;;;27.67;16.80;;;18.60;99.90;;;;;;5060199;28;20268;-47
2022/08/19 03:16:18;;;;;;;28.33;18.30;;;18.70;99.90;;;;;;5064520;28;20400;-48
2022/08/19 03:18:45;;;;;;;29.90;18.17;;;18.70;99.90;;;;;;5061403;28;20224;-51
2022/08/19 03:21:18;;;;;;;29.83;18.47;;;18.70;99.90;;;;;;5065109;28;20222;-46
2022/08/19 03:23:45;;;;;;;29.80;17.83;;;18.80;99.90;;;;;;5051407;28;20209;-52
2022/08/19 03:26:14;;;;;;;27.90;17.00;;;18.80;99.90;;;;;;5070730;28;20194;-46
2022/08/19 03:28:41;;;;;;;23.77;17.03;;;18.80;99.90;;;;;;5061994;28;20201;-49
2022/08/19 03:31:12;;;;;;;29.47;18.80;;;18.80;99.90;;;;;;5069216;28;20337;-49
2022/08/19 03:33:41;;;;;;;28.17;17.30;;;18.70;99.90;;;;;;5080580;28;20288;-50
2022/08/19 03:36:10;;;;;;;29.27;17.53;;;18.70;99.90;;;;;;5075919;28;20195;-48
2022/08/19 03:38:41;;;;;;;24.73;17.00;;;18.70;99.90;;;;;;5050217;28;20225;-50
2022/08/19 03:41:10;;;;;;;36.77;19.20;;;18.70;99.90;;;;;;5069765;28;20305;-46
2022/08/19 03:43:37;;;;;;;28.43;17.67;;;18.70;99.90;;;;;;5061625;28;20213;-48
2022/08/19 03:46:09;;;;;;;29.77;19.87;;;18.70;99.90;;;;;;5061637;28;20209;-46
2022/08/19 03:48:38;;;;;;;30.30;17.83;;;18.80;99.90;;;;;;5064033;28;20210;-48
2022/08/19 03:51:06;;;;;;;28.17;18.73;;;18.70;99.90;;;;;;5063336;28;21071;-47
2022/08/19 03:53:34;;;;;;;26.77;17.87;;;18.70;99.90;;;;;;5051884;28;20260;-48
2022/08/19 03:56:03;;;;;;;24.77;17.13;;;18.70;99.90;;;;;;5068901;28;20225;-47
2022/08/19 03:58:30;;;;;;;30.70;20.17;;;18.80;99.90;;;;;;5064537;28;20687;-50
2022/08/19 04:00:58;;;;;;;29.40;19.53;;;18.70;99.90;;;;;;5061392;28;20219;-48
2022/08/19 04:03:26;;;;;;;34.63;20.77;;;18.70;99.90;;;;;;5060105;28;20256;-50
2022/08/19 04:05:54;;;;;;;31.00;19.90;;;18.70;99.90;;;;;;5077830;28;20190;-50
2022/08/19 04:08:22;;;;;;;30.80;20.27;;;18.60;99.90;;;;;;5068100;28;20203;-46
2022/08/19 04:10:49;;;;;;;30.73;18.43;;;18.60;99.90;;;;;;5054714;28;20245;-49
2022/08/19 04:13:19;;;;;;;36.97;20.27;;;18.60;99.90;;;;;;5066153;28;20206;-48
2022/08/19 04:15:47;;;;;;;38.13;20.07;;;18.70;99.90;;;;;;5060205;28;20205;-51
2022/08/19 04:18:14;;;;;;;35.53;20.87;;;18.70;99.90;;;;;;5059378;28;20250;-47
2022/08/19 04:20:43;;;;;;;33.20;20.23;;;18.70;99.90;;;;;;5080329;28;20222;-51
2022/08/19 04:23:10;;;;;;;31.80;19.77;;;18.60;99.90;;;;;;5062888;28;20195;-47
2022/08/19 04:25:39;;;;;;;37.77;20.33;;;18.60;99.90;;;;;;5052116;28;20589;-50
2022/08/19 04:28:07;;;;;;;36.10;22.03;;;18.70;99.90;;;;;;5062271;28;20218;-47
2022/08/19 04:30:41;;;;;;;42.00;21.70;;;18.70;99.90;;;;;;5062110;28;20321;-51
2022/08/19 04:33:08;;;;;;;33.77;22.13;;;18.70;99.90;;;;;;5059026;28;20664;-51
2022/08/19 04:35:37;;;;;;;41.00;22.43;;;18.70;99.90;;;;;;5074410;28;20218;-51
2022/08/19 04:38:04;;;;;;;40.53;23.63;;;18.80;99.90;;;;;;5068076;28;20941;-49
2022/08/19 04:43:16;;;;;;;42.67;24.80;;;18.80;99.90;;;;;;5069043;28;20332;-46
2022/08/19 04:45:44;;;;;;;46.03;23.40;;;18.80;99.90;;;;;;5060320;28;20194;-51
2022/08/19 04:48:11;;;;;;;41.33;23.37;;;18.80;99.90;;;;;;5062891;28;20604;-47
2022/08/19 04:50:42;;;;;;;37.97;24.10;;;18.70;99.90;;;;;;5064044;28;20711;-49
2022/08/19 04:53:10;;;;;;;45.60;25.70;;;18.80;99.90;;;;;;5062718;28;20194;-48
2022/08/19 04:55:40;;;;;;;44.90;25.47;;;18.70;99.90;;;;;;5055236;28;20199;-49
2022/08/19 04:58:08;;;;;;;41.90;26.33;;;18.70;99.90;;;;;;5062972;28;20225;-48
2022/08/19 05:00:34;;;;;;;49.27;26.67;;;18.70;99.90;;;;;;5079314;28;20823;-52
2022/08/19 05:03:03;;;;;;;45.57;27.27;;;18.70;99.90;;;;;;5080739;28;20189;-47
2022/08/19 05:05:31;;;;;;;48.73;27.70;;;18.70;99.90;;;;;;5068177;28;20218;-50
2022/08/19 05:07:58;;;;;;;50.73;28.93;;;18.70;99.90;;;;;;5064080;28;20186;-49
2022/08/19 05:10:25;;;;;;;46.63;28.60;;;18.70;99.90;;;;;;5063605;28;20850;-47
2022/08/19 05:12:52;;;;;;;56.40;30.93;;;18.60;99.90;;;;;;5050675;28;20219;-47
2022/08/19 05:15:19;;;;;;;46.80;27.53;;;18.60;99.90;;;;;;5071696;28;20191;-46
2022/08/19 05:23:15;;;;;;;47.63;28.17;;;18.60;99.90;;;;;;5059185;28;20213;-46
2022/08/19 05:25:43;;;;;;;42.47;27.57;;;18.60;99.90;;;;;;5066361;28;20205;-49
2022/08/19 05:28:09;;;;;;;39.50;24.93;;;18.60;99.90;;;;;;5048312;28;20210;-49
2022/08/19 05:30:36;;;;;;;46.17;26.10;;;18.60;99.90;;;;;;5063552;28;20609;-49
2022/08/19 05:33:03;;;;;;;38.27;23.70;;;18.60;99.90;;;;;;5071576;28;20201;-47
2022/08/19 05:35:31;;;;;;;38.90;23.33;;;18.70;99.90;;;;;;5070745;28;20256;-49
2022/08/19 05:37:59;;;;;;;40.03;23.53;;;18.70;99.90;;;;;;5070181;28;20214;-48
2022/08/19 05:40:25;;;;;;;38.33;22.60;;;18.60;99.90;;;;;;5071455;28;20218;-50
2022/08/19 05:42:53;;;;;;;29.17;20.60;;;18.70;99.90;;;;;;5054535;28;20218;-47
2022/08/19 05:45:21;;;;;;;33.13;20.77;;;18.70;99.90;;;;;;5067336;28;20210;-48
2022/08/19 05:47:48;;;;;;;31.43;21.00;;;18.70;99.90;;;;;;5067450;28;20731;-50
2022/08/19 05:50:17;;;;;;;31.00;19.53;;;18.70;99.90;;;;;;5070000;28;20219;-47
2022/08/19 05:52:45;;;;;;;35.70;19.67;;;18.70;99.90;;;;;;5072199;28;20194;-49
2022/08/19 05:55:12;;;;;;;29.37;19.37;;;18.70;99.90;;;;;;5080484;28;20198;-49
2022/08/19 05:57:40;;;;;;;32.77;19.80;;;18.70;99.90;;;;;;5071201;28;20215;-53
2022/08/19 06:00:10;;;;;;;28.03;18.83;;;18.60;99.90;;;;;;5055716;28;20730;-50
2022/08/19 06:02:39;;;;;;;30.80;18.67;;;18.60;99.90;;;;;;5068939;28;20221;-50
2022/08/19 06:05:08;;;;;;;29.77;21.00;;;18.70;99.90;;;;;;5072652;28;20198;-48
2022/08/19 06:07:35;;;;;;;29.17;19.87;;;18.70;99.90;;;;;;5062064;28;20213;-49
2022/08/19 06:10:04;;;;;;;27.83;18.97;;;18.70;99.90;;;;;;5074160;28;20218;-47
2022/08/19 06:12:34;;;;;;;26.37;17.63;;;18.70;99.90;;;;;;5067388;28;20187;-49
2022/08/19 06:15:01;;;;;;;31.43;18.53;;;18.70;99.90;;;;;;5063089;28;20372;-49
2022/08/19 06:17:29;;;;;;;32.70;20.17;;;18.70;99.90;;;;;;5072390;28;20213;-50
2022/08/19 06:19:57;;;;;;;29.70;19.43;;;18.70;99.90;;;;;;5075069;28;20286;-47
2022/08/19 06:22:24;;;;;;;29.80;19.80;;;18.70;99.90;;;;;;5070043;28;20216;-51
2022/08/19 06:24:52;;;;;;;27.23;17.90;;;18.80;99.90;;;;;;5063711;28;20205;-52
2022/08/19 06:27:21;;;;;;;27.13;17.77;;;18.80;99.90;;;;;;5083242;28;20191;-52
2022/08/19 06:29:47;;;;;;;28.65;19.60;;;18.90;99.90;;;;;;5067620;28;20420;-48
2022/08/19 06:32:17;;;;;;;29.23;19.70;;;19.10;99.90;;;;;;5061965;28;20829;-47
2022/08/19 06:34:44;;;;;;;28.97;18.77;;;19.20;99.90;;;;;;5068409;28;20251;-54
2022/08/19 06:37:12;;;;;;;28.53;18.33;;;19.20;99.90;;;;;;5063773;28;20237;-56
2022/08/19 06:39:41;;;;;;;32.00;21.35;;;19.20;99.90;;;;;;5069100;28;20425;-54
2022/08/19 06:42:11;;;;;;;25.43;17.90;;;19.50;99.90;;;;;;5067956;28;20187;-49
2022/08/19 06:44:41;;;;;;;28.20;18.37;;;19.40;99.90;;;;;;5071549;28;20218;-53
2022/08/19 06:47:09;;;;;;;27.57;18.73;;;19.30;99.90;;;;;;5054447;28;20277;-53
2022/08/19 06:49:37;;;;;;;29.00;17.63;;;19.30;99.90;;;;;;5074681;28;20392;-51
2022/08/19 06:52:05;;;;;;;31.98;20.73;;;19.30;99.90;;;;;;5066766;28;20448;-55
2022/08/19 06:54:33;;;;;;;27.93;18.50;;;19.40;99.90;;;;;;5071150;28;20571;-50
2022/08/19 06:57:02;;;;;;;26.23;20.20;;;19.30;99.90;;;;;;5059140;28;20445;-51
2022/08/19 06:59:32;;;;;;;32.00;20.67;;;19.50;99.90;;;;;;5075672;28;20633;-50
2022/08/19 07:02:05;;;;;;;25.70;17.60;;;19.60;99.90;;;;;;5041402;28;20221;-49
2022/08/19 07:04:34;;;;;;;29.63;20.83;;;19.50;99.90;;;;;;5061969;28;21213;-48
2022/08/19 07:07:06;;;;;;;26.00;18.23;;;19.70;99.90;;;;;;5049431;28;20199;-48
2022/08/19 07:09:33;;;;;;;31.27;17.60;;;19.50;99.90;;;;;;5064543;28;20198;-51
2022/08/19 07:12:00;;;;;;;22.13;17.07;;;19.40;99.90;;;;;;5058902;28;20232;-49
2022/08/19 07:14:28;;;;;;;25.17;17.03;;;19.40;99.90;;;;;;5069591;28;20205;-49
2022/08/19 07:16:57;;;;;;;28.13;17.87;;;19.30;99.90;;;;;;5066541;28;20198;-49
2022/08/19 07:19:27;;;;;;;29.40;17.13;;;19.30;99.90;;;;;;5068243;28;20222;-48
2022/08/19 07:21:55;;;;;;;27.17;19.35;;;19.30;99.90;;;;;;5064664;28;20472;-51
2022/08/19 07:24:24;;;;;;;23.87;16.97;;;19.40;99.90;;;;;;5064477;28;20193;-47
2022/08/19 07:26:52;;;;;;;24.47;16.93;;;19.30;99.90;;;;;;5062670;28;20202;-50
2022/08/19 07:29:22;;;;;;;24.60;17.53;;;19.20;99.90;;;;;;5073407;28;20674;-48
2022/08/19 07:31:50;;;;;;;23.67;17.77;;;19.20;99.90;;;;;;5073252;28;20663;-50
2022/08/19 07:34:18;;;;;;;28.67;18.17;;;19.20;99.90;;;;;;5054474;28;20206;-47
2022/08/19 07:36:46;;;;;;;25.47;17.47;;;19.20;99.90;;;;;;5070551;28;20210;-52
2022/08/19 07:39:16;;;;;;;29.70;17.23;;;19.20;99.90;;;;;;5072025;28;20237;-47
2022/08/19 07:41:45;;;;;;;22.47;16.37;;;19.20;99.90;;;;;;5066120;28;20565;-49
2022/08/19 07:44:14;;;;;;;25.80;18.73;;;19.20;99.90;;;;;;5072321;28;20210;-49
2022/08/19 07:46:45;;;;;;;28.10;18.43;;;19.30;99.90;;;;;;5069474;28;20207;-47
2022/08/19 07:49:17;;;;;;;26.30;17.83;;;19.30;99.90;;;;;;5060469;28;20190;-49
2022/08/19 07:51:46;;;;;;;22.97;17.90;;;19.30;99.90;;;;;;5071214;28;20198;-52
2022/08/19 07:54:13;;;;;;;27.70;17.77;;;19.30;99.90;;;;;;5062545;28;20202;-49
2022/08/19 07:56:40;;;;;;;23.13;16.40;;;19.20;99.90;;;;;;5065548;28;20217;-51
2022/08/19 07:59:07;;;;;;;27.67;18.37;;;19.20;99.90;;;;;;5057599;28;20267;-50
2022/08/19 08:01:34;;;;;;;28.60;18.10;;;19.20;99.90;;;;;;5070995;28;20225;-48
2022/08/19 08:09:34;;;;;;;28.10;18.73;;;19.30;99.90;;;;;;5067933;28;20246;-49
2022/08/19 08:12:05;;;;;;;27.53;18.93;;;19.30;99.90;;;;;;5058134;28;20203;-48
2022/08/19 08:14:35;;;;;;;26.87;18.93;;;19.30;99.90;;;;;;5062225;28;20735;-52
2022/08/19 08:17:03;;;;;;;26.03;18.13;;;19.30;99.90;;;;;;5065445;28;20283;-52
2022/08/19 08:19:30;;;;;;;25.23;17.70;;;19.30;99.90;;;;;;5076694;28;20297;-51
2022/08/19 08:22:00;;;;;;;27.70;17.80;;;19.30;99.90;;;;;;5055512;28;20199;-54
2022/08/19 08:24:30;;;;;;;27.53;17.60;;;19.40;99.90;;;;;;5077615;28;20194;-52
2022/08/19 08:26:58;;;;;;;21.83;16.80;;;19.40;99.90;;;;;;5055263;28;20283;-52
2022/08/19 08:29:25;;;;;;;25.27;16.40;;;19.40;99.90;;;;;;5064973;28;20238;-50
2022/08/19 08:31:53;;;;;;;23.03;16.30;;;19.40;99.90;;;;;;5065135;28;20667;-53
2022/08/19 08:34:20;;;;;;;26.17;16.07;;;19.40;99.90;;;;;;5067866;28;20194;-48
2022/08/19 08:36:48;;;;;;;28.57;17.43;;;19.40;99.90;;;;;;5061401;28;20221;-51
2022/08/19 08:39:18;;;;;;;26.23;16.70;;;19.40;99.90;;;;;;5066228;28;20220;-50
2022/08/19 08:41:50;;;;;;;26.37;17.57;;;19.40;99.90;;;;;;5067809;28;20213;-53
2022/08/19 08:44:21;;;;;;;29.30;17.13;;;19.40;99.90;;;;;;5060809;28;20202;-50
2022/08/19 08:46:50;;;;;;;26.20;17.77;;;19.40;99.90;;;;;;5069723;28;20201;-54
2022/08/19 08:49:37;;;;;;;29.57;16.80;;;19.50;99.90;;;;;;5070785;28;20743;-53
2022/08/19 08:52:07;;;;;;;26.07;17.50;;;19.50;99.90;;;;;;5056974;28;20202;-51
2022/08/19 08:54:41;;;;;;;26.20;17.03;;;19.50;99.90;;;;;;5071276;28;20198;-52
2022/08/19 08:57:13;;;;;;;24.83;16.57;;;19.50;99.90;;;;;;5064569;28;20195;-49
2022/08/19 08:59:42;;;;;;;26.53;16.93;;;19.60;99.90;;;;;;5068620;28;20218;-49
2022/08/19 09:02:09;;;;;;;25.27;16.70;;;19.50;99.90;;;;;;5059833;28;20195;-60
2022/08/19 09:04:37;;;;;;;26.27;17.67;;;19.60;99.90;;;;;;5071876;28;20202;-60
2022/08/19 09:07:19;;;;;;;25.40;16.77;;;19.60;99.90;;;;;;5054233;28;21618;-60
2022/08/19 09:09:50;;;;;;;23.73;17.00;;;19.60;99.90;;;;;;5070975;28;20210;-60
2022/08/19 09:12:24;;;;;;;25.83;18.20;;;19.70;99.90;;;;;;5064990;28;20208;-60
2022/08/19 09:14:56;;;;;;;25.23;17.23;;;19.70;99.90;;;;;;5068076;28;20205;-53
2022/08/19 09:17:30;;;;;;;24.23;16.27;;;19.70;99.90;;;;;;5058883;28;20211;-52
2022/08/19 09:20:04;;;;;;;28.20;16.50;;;19.80;99.90;;;;;;5065172;28;20226;-49
2022/08/19 09:22:31;;;;;;;22.33;16.43;;;19.80;99.90;;;;;;5054458;28;20348;-52
2022/08/19 09:24:59;;;;;;;24.97;17.27;;;19.90;99.90;;;;;;5069370;28;20548;-52
2022/08/19 09:27:28;;;;;;;25.73;17.67;;;19.90;99.90;;;;;;5065591;28;20206;-50
2022/08/19 09:29:55;;;;;;;24.33;17.37;;;19.90;99.90;;;;;;5061932;28;20719;-53
2022/08/19 09:32:23;;;;;;;25.00;17.70;;;19.90;99.90;;;;;;5063357;28;20217;-52
2022/08/19 09:34:54;;;;;;;26.30;18.60;;;20.00;99.90;;;;;;5075181;28;20762;-54
2022/08/19 09:37:21;;;;;;;24.47;17.03;;;19.90;99.90;;;;;;5071618;28;20286;-51
2022/08/19 09:39:48;;;;;;;25.57;17.20;;;20.00;99.90;;;;;;5058405;28;20206;-51
2022/08/19 09:42:16;;;;;;;27.53;16.80;;;20.10;99.90;;;;;;5068146;28;20679;-51
2022/08/19 09:44:43;;;;;;;27.00;16.97;;;20.10;99.90;;;;;;5066689;28;20226;-51
2022/08/19 09:47:12;;;;;;;26.23;16.93;;;20.20;99.90;;;;;;5067121;28;20292;-48
2022/08/19 09:49:40;;;;;;;29.03;18.00;;;20.20;99.90;;;;;;5076889;28;20573;-47
2022/08/19 09:52:08;;;;;;;23.73;17.37;;;20.20;99.90;;;;;;5075567;28;20203;-52
2022/08/19 09:54:35;;;;;;;25.80;16.53;;;20.20;99.90;;;;;;5050373;28;24613;-50
2022/08/19 09:57:02;;;;;;;28.27;17.17;;;20.30;99.90;;;;;;5074579;28;20190;-49
2022/08/19 09:59:30;;;;;;;30.57;19.00;;;20.30;99.90;;;;;;5064576;28;20219;-55
2022/08/19 10:01:57;;;;;;;25.10;16.73;;;20.20;99.90;;;;;;5069400;28;20198;-49
2022/08/19 10:05:47;;;;;;;25.37;16.87;;;20.30;99.90;;;;;;5061989;28;20605;-53
2022/08/19 10:07:10;;;;;;;24.93;17.13;;;20.30;99.90;;;;;;5073521;28;20636;-52
2022/08/19 10:09:37;;;;;;;24.03;16.70;;;20.30;99.90;;;;;;5062603;28;20198;-48
2022/08/19 10:12:05;;;;;;;24.23;17.10;;;20.40;99.90;;;;;;5054359;28;20213;-50
2022/08/19 10:14:35;;;;;;;25.47;17.90;;;20.40;99.90;;;;;;5058873;28;20203;-50
2022/08/19 10:17:03;;;;;;;23.40;17.03;;;20.50;99.90;;;;;;5065797;28;20208;-49
2022/08/19 10:19:35;;;;;;;26.40;16.80;;;20.50;99.90;;;;;;5066056;28;20222;-47
2022/08/19 10:22:04;;;;;;;19.73;15.93;;;20.60;99.90;;;;;;5079794;28;20213;-49
2022/08/19 10:24:33;;;;;;;25.03;16.30;;;20.60;99.90;;;;;;5064871;28;22054;-52
2022/08/19 10:27:03;;;;;;;21.17;16.50;;;20.60;99.90;;;;;;5054174;28;20523;-52
2022/08/19 10:29:29;;;;;;;22.65;15.45;;;20.70;99.90;;;;;;5065965;28;20204;-52
2022/08/19 10:31:59;;;;;;;20.85;16.02;;;20.60;99.90;;;;;;5063562;28;20229;-54
2022/08/19 10:34:27;;;;;;;21.23;15.07;;;20.60;99.90;;;;;;5060867;28;20209;-49
2022/08/19 10:36:54;;;;;;;25.43;16.87;;;20.60;99.90;;;;;;5069113;28;20191;-51
2022/08/19 10:39:21;;;;;;;20.77;16.17;;;20.60;99.90;;;;;;5065620;28;20250;-52
2022/08/19 10:41:48;;;;;;;17.73;15.73;;;20.60;99.90;;;;;;5062936;28;20607;-55
2022/08/19 10:44:16;;;;;;;19.38;15.95;;;20.60;99.90;;;;;;5071084;28;20208;-49
2022/08/19 10:46:46;;;;;;;21.48;14.98;;;20.50;99.90;;;;;;5066830;28;20201;-49
2022/08/19 10:49:15;;;;;;;21.95;16.08;;;20.60;99.90;;;;;;5063439;28;20187;-49
2022/08/19 10:56:50;;;;;;;20.30;14.63;;;20.60;99.90;;;;;;5064849;28;20191;-49
2022/08/19 10:57:14;;;;;;;22.70;17.50;;;20.50;99.90;;;;;;5054456;28;22447;-47
2022/08/19 10:59:41;;;;;;;21.00;14.35;;;20.40;99.90;;;;;;5075507;28;20578;-51
2022/08/19 11:02:11;;;;;;;21.13;14.47;;;20.50;99.90;;;;;;5065488;28;20297;-51
2022/08/19 11:04:40;;;;;;;23.67;14.70;;;20.50;99.90;;;;;;5073171;28;20293;-51
2022/08/19 11:07:08;;;;;;;24.20;14.48;;;20.50;99.90;;;;;;5063411;28;20417;-54
2022/08/19 11:09:40;;;;;;;21.87;14.70;;;20.50;99.90;;;;;;5067956;28;20250;-54
2022/08/19 11:12:08;;;;;;;18.88;14.90;;;20.60;99.90;;;;;;5059683;28;20220;-50
2022/08/19 11:14:35;;;;;;;21.60;14.77;;;20.70;99.90;;;;;;5064131;28;20207;-52
2022/08/19 11:17:03;;;;;;;20.02;14.07;;;20.60;99.90;;;;;;5067717;28;20205;-53
2022/08/19 11:19:30;;;;;;;18.80;14.60;;;20.70;99.90;;;;;;5061806;28;20219;-49
2022/08/19 11:21:59;;;;;;;17.80;13.23;;;20.80;99.90;;;;;;5061929;28;20211;-50
2022/08/19 11:24:27;;;;;;;17.40;13.98;;;20.90;99.90;;;;;;5061427;28;20216;-50
2022/08/19 11:26:58;;;;;;;21.83;14.43;;;21.00;99.90;;;;;;5073131;28;20541;-49
2022/08/19 11:29:27;;;;;;;16.55;14.00;;;21.10;99.90;;;;;;5051235;28;20232;-53
2022/08/19 11:31:54;;;;;;;19.92;14.57;;;21.10;99.90;;;;;;5068012;28;20232;-48
2022/08/19 11:34:23;;;;;;;14.45;12.13;;;21.20;99.90;;;;;;5070245;28;20204;-53
2022/08/19 11:36:51;;;;;;;15.07;11.75;;;21.30;99.90;;;;;;5069833;28;20216;-49
2022/08/19 11:39:22;;;;;;;20.08;13.75;;;21.40;99.90;;;;;;5069951;28;20227;-54
2022/08/19 11:41:49;;;;;;;18.08;13.63;;;21.50;99.90;;;;;;5071161;28;20205;-53
2022/08/19 11:44:16;;;;;;;15.68;13.25;;;21.60;99.90;;;;;;5054364;28;20198;-55
2022/08/19 11:46:45;;;;;;;18.73;12.57;;;21.60;99.90;;;;;;5067826;28;20205;-51
2022/08/19 11:49:12;;;;;;;14.73;13.15;;;21.70;99.90;;;;;;5067288;28;20194;-51
2022/08/19 11:51:39;;;;;;;15.25;12.68;;;21.80;99.90;;;;;;5058438;28;20229;-50
2022/08/19 11:54:06;;;;;;;18.38;13.35;;;21.80;99.90;;;;;;5064259;28;20284;-53
2022/08/19 11:56:35;;;;;;;15.20;12.75;;;21.90;99.90;;;;;;5060220;28;20281;-50
2022/08/19 11:59:02;;;;;;;14.25;11.90;;;22.00;99.90;;;;;;5053768;28;20248;-50
2022/08/19 12:01:29;;;;;;;12.77;11.38;;;22.00;99.90;;;;;;5064851;28;20293;-53
2022/08/19 12:03:57;;;;;;;14.55;11.63;;;22.00;99.90;;;;;;5069801;28;20901;-51
2022/08/19 12:06:28;;;;;;;14.93;12.52;;;22.00;99.90;;;;;;5063080;28;20206;-55
2022/08/19 12:08:55;;;;;;;12.07;10.88;;;21.90;99.90;;;;;;5069099;28;20198;-51
2022/08/19 12:11:22;;;;;;;13.18;10.88;;;21.90;99.90;;;;;;5070868;28;20222;-55
2022/08/19 12:13:50;;;;;;;14.23;11.57;;;21.90;99.90;;;;;;5051157;28;20206;-48
2022/08/19 12:16:19;;;;;;;13.50;11.65;;;22.00;99.90;;;;;;5063972;28;20191;-52
2022/08/19 12:18:46;;;;;;;14.38;12.70;;;21.90;99.90;;;;;;5063870;28;20206;-53
2022/08/19 12:21:13;;;;;;;16.63;12.35;;;21.90;99.90;;;;;;5066201;28;20214;-48
2022/08/19 12:23:40;;;;;;;15.43;11.55;;;21.80;99.90;;;;;;5063838;28;20289;-52
2022/08/19 12:26:07;;;;;;;13.30;11.90;;;21.70;99.90;;;;;;5060903;28;20201;-49
2022/08/19 12:28:35;;;;;;;13.40;11.90;;;21.60;99.90;;;;;;5066858;28;20205;-52
2022/08/19 12:31:03;;;;;;;13.60;11.27;;;21.60;99.90;;;;;;5056940;28;20983;-51
2022/08/19 12:33:31;;;;;;;14.32;12.27;;;21.60;99.90;;;;;;5075298;28;20202;-47
2022/08/19 12:36:02;;;;;;;15.38;12.95;;;21.70;99.90;;;;;;5061939;28;20305;-48
2022/08/19 12:38:30;;;;;;;14.85;12.82;;;21.80;99.90;;;;;;5063250;28;20198;-50
2022/08/19 12:40:56;;;;;;;14.52;12.75;;;21.80;99.90;;;;;;5070196;28;20917;-47
2022/08/19 12:43:24;;;;;;;14.88;12.90;;;21.90;99.90;;;;;;5067542;28;20288;-49
2022/08/19 12:45:51;;;;;;;13.95;12.40;;;22.00;99.90;;;;;;5057816;28;20202;-51
2022/08/19 12:48:19;;;;;;;13.82;12.00;;;22.10;99.90;;;;;;5069861;28;20194;-49
2022/08/19 12:50:46;;;;;;;14.88;12.73;;;22.30;99.90;;;;;;5075348;28;20210;-52